createdAt,value
2024-04-23T00:00:27.613Z,45.60
2024-04-23T00:03:21.368Z,41.90
2024-04-23T00:05:55.002Z,43.40
2024-04-23T00:08:28.818Z,42.10
2024-04-23T00:11:02.755Z,42.80
2024-04-23T00:13:36.520Z,35.60
2024-04-23T00:16:12.382Z,28.80
2024-04-23T00:18:45.949Z,40.40
2024-04-23T00:21:19.734Z,31.20
2024-04-23T00:23:53.542Z,30.60
2024-04-23T00:26:27.236Z,32.60
2024-04-23T00:29:01.001Z,29.80
2024-04-23T00:31:34.690Z,34.90
2024-04-23T00:34:08.287Z,37.30
2024-04-23T00:36:51.780Z,48.90
2024-04-23T00:39:25.835Z,68.40
2024-04-23T00:42:00.624Z,60.50
2024-04-23T00:44:34.360Z,46.20
2024-04-23T00:47:09.465Z,59.20
2024-04-23T00:49:43.715Z,73.00
2024-04-23T00:52:19.091Z,81.00
2024-04-23T00:54:54.305Z,83.10
2024-04-23T00:57:27.897Z,76.70
2024-04-23T01:00:01.812Z,84.50
2024-04-23T01:02:35.894Z,74.20
2024-04-23T01:05:10.500Z,63.50
2024-04-23T01:07:43.941Z,70.30
2024-04-23T01:10:18.324Z,66.10
2024-04-23T01:12:52.048Z,65.30
2024-04-23T01:15:27.900Z,72.50
2024-04-23T01:18:06.813Z,75.70
2024-04-23T01:20:42.472Z,68.80
2024-04-23T01:23:24.089Z,71.00
2024-04-23T01:26:07.318Z,64.40
2024-04-23T01:28:44.304Z,54.20
2024-04-23T01:31:21.206Z,52.60
2024-04-23T01:33:57.965Z,59.00
2024-04-23T01:36:32.868Z,57.90
2024-04-23T01:39:07.613Z,58.30
2024-04-23T01:41:41.239Z,49.20
2024-04-23T01:44:15.021Z,46.20
2024-04-23T01:46:49.690Z,47.80
2024-04-23T01:49:23.738Z,40.50
2024-04-23T01:51:57.864Z,40.30
2024-04-23T01:54:31.564Z,48.10
2024-04-23T01:57:09.644Z,45.80
2024-04-23T01:59:54.097Z,38.90
2024-04-23T02:02:29.247Z,39.00
2024-04-23T02:05:04.316Z,40.80
2024-04-23T02:07:38.658Z,35.90
2024-04-23T02:10:13.649Z,36.00
2024-04-23T02:12:47.703Z,33.70
2024-04-23T02:15:22.239Z,40.20
2024-04-23T02:17:57.573Z,34.90
2024-04-23T02:20:31.378Z,32.90
2024-04-23T02:23:05.035Z,37.50
2024-04-23T02:25:38.787Z,47.10
2024-04-23T02:28:12.485Z,44.50
2024-04-23T02:30:46.248Z,40.50
2024-04-23T02:33:20.044Z,43.40
2024-04-23T02:35:53.996Z,47.20
2024-04-23T02:38:27.546Z,39.80
2024-04-23T02:41:01.322Z,48.60
2024-04-23T02:43:35.068Z,49.20
2024-04-23T02:46:09.317Z,49.80
2024-04-23T02:48:42.919Z,58.00
2024-04-23T02:51:16.345Z,58.50
2024-04-23T02:53:50.030Z,59.30
2024-04-23T02:56:24.155Z,54.80
2024-04-23T02:58:58.842Z,58.00
2024-04-23T03:01:32.467Z,49.70
2024-04-23T03:04:06.003Z,56.60
2024-04-23T03:06:39.815Z,55.50
2024-04-23T03:09:13.473Z,66.00
2024-04-23T03:11:57.029Z,59.50
2024-04-23T03:14:30.655Z,60.70
2024-04-23T03:17:05.033Z,60.40
2024-04-23T03:19:38.867Z,56.80
2024-04-23T03:22:12.472Z,49.20
2024-04-23T03:24:46.239Z,53.60
2024-04-23T03:27:19.863Z,52.90
2024-04-23T03:29:53.473Z,51.10
2024-04-23T03:32:26.990Z,51.50
2024-04-23T03:35:00.781Z,45.40
2024-04-23T03:37:34.740Z,43.80
2024-04-23T03:40:11.563Z,46.10
2024-04-23T03:42:45.246Z,44.20
2024-04-23T03:45:18.578Z,47.30
2024-04-23T03:47:52.091Z,48.20
2024-04-23T03:50:27.924Z,50.40
2024-04-23T03:53:01.786Z,45.90
2024-04-23T03:55:35.658Z,43.50
2024-04-23T03:58:09.327Z,46.90
2024-04-23T04:00:42.758Z,46.80
2024-04-23T04:03:33.797Z,41.90
2024-04-23T04:06:08.404Z,34.90
2024-04-23T04:08:42.588Z,42.50
2024-04-23T04:11:16.217Z,49.90
2024-04-23T04:13:50.113Z,45.50
2024-04-23T04:16:24.623Z,46.40
2024-04-23T04:18:58.222Z,38.80
2024-04-23T04:21:31.923Z,38.00
2024-04-23T04:24:06.187Z,37.00
2024-04-23T04:26:39.764Z,41.70
2024-04-23T04:29:13.319Z,48.60
2024-04-23T04:31:46.841Z,43.90
2024-04-23T04:34:21.966Z,44.20
2024-04-23T04:36:55.383Z,44.10
2024-04-23T04:39:29.156Z,41.40
2024-04-23T04:42:05.974Z,33.90
2024-04-23T04:44:41.166Z,37.20
2024-04-23T04:47:14.873Z,40.30
2024-04-23T04:49:48.645Z,38.50
2024-04-23T04:52:22.328Z,39.40
2024-04-23T04:54:55.794Z,38.90
2024-04-23T04:57:32.181Z,44.00
2024-04-23T05:00:06.916Z,43.60
2024-04-23T05:02:41.152Z,45.30
2024-04-23T05:05:14.791Z,48.20
2024-04-23T05:07:48.331Z,53.20
2024-04-23T05:10:22.296Z,50.70
2024-04-23T05:12:56.076Z,55.90
2024-04-23T05:15:30.659Z,49.70
2024-04-23T05:18:04.408Z,52.10
2024-04-23T05:20:38.383Z,55.60
2024-04-23T05:23:12.082Z,52.30
2024-04-23T05:25:47.128Z,49.30
2024-04-23T05:28:20.867Z,53.30
2024-04-23T05:31:12.159Z,54.40
2024-04-23T05:33:46.012Z,57.50
2024-04-23T05:36:23.923Z,59.60
2024-04-23T05:38:57.942Z,73.20
2024-04-23T05:41:32.031Z,69.10
2024-04-23T05:44:05.944Z,74.20
2024-04-23T05:46:39.506Z,63.30
2024-04-23T05:50:05.574Z,55.40
2024-04-23T05:53:50.343Z,49.10
2024-04-23T05:56:43.451Z,51.40
2024-04-23T05:59:17.167Z,65.10
2024-04-23T06:01:50.814Z,67.70
2024-04-23T06:04:24.577Z,72.90
2024-04-23T06:06:58.300Z,77.70
2024-04-23T06:09:33.650Z,68.50
2024-04-23T06:12:08.372Z,69.50
2024-04-23T06:14:44.423Z,65.70
2024-04-23T06:17:32.037Z,61.30
2024-04-23T06:20:13.821Z,55.50
2024-04-23T06:22:50.360Z,55.80
2024-04-23T06:25:26.032Z,30.50
2024-04-23T06:27:59.741Z,49.20
2024-04-23T06:30:33.572Z,53.30
2024-04-23T06:33:07.481Z,40.40
2024-04-23T06:35:41.186Z,40.20
2024-04-23T06:38:14.861Z,39.70
2024-04-23T06:40:53.872Z,28.10
2024-04-23T06:43:28.830Z,31.90
2024-04-23T06:46:02.488Z,28.40
2024-04-23T06:48:36.083Z,30.80
2024-04-23T06:51:11.632Z,27.80
2024-04-23T06:53:45.263Z,23.80
2024-04-23T06:56:18.897Z,27.40
2024-04-23T06:58:52.687Z,26.20
2024-04-23T07:01:26.537Z,27.40
2024-04-23T07:04:00.263Z,26.60
2024-04-23T07:06:37.810Z,28.90
2024-04-23T07:09:12.805Z,28.40
2024-04-23T07:11:47.486Z,25.60
2024-04-23T07:14:21.456Z,22.30
2024-04-23T07:16:55.631Z,20.00
2024-04-23T07:19:29.923Z,12.30
2024-04-23T07:22:03.699Z,10.30
2024-04-23T07:24:37.600Z,7.60
2024-04-23T07:27:11.496Z,9.00
2024-04-23T07:29:45.107Z,7.70
2024-04-23T07:32:19.759Z,10.40
2024-04-23T07:34:53.662Z,7.70
2024-04-23T07:37:27.909Z,7.30
2024-04-23T07:40:01.498Z,8.60
2024-04-23T07:42:36.213Z,6.90
2024-04-23T07:45:12.883Z,7.00
2024-04-23T07:47:46.639Z,7.60
2024-04-23T07:50:21.983Z,7.40
2024-04-23T07:52:55.833Z,6.80
2024-04-23T07:55:29.891Z,6.10
2024-04-23T07:58:03.961Z,5.30
2024-04-23T08:00:37.782Z,16.90
2024-04-23T08:03:13.441Z,10.20
2024-04-23T08:05:47.235Z,6.40
2024-04-23T08:08:22.032Z,6.60
2024-04-23T08:10:56.202Z,6.90
2024-04-23T08:13:31.442Z,7.10
2024-04-23T08:16:06.001Z,6.70
2024-04-23T08:18:39.832Z,7.50
2024-04-23T08:21:13.459Z,9.30
2024-04-23T08:23:50.130Z,7.50
2024-04-23T08:26:24.098Z,7.50
2024-04-23T08:29:01.930Z,8.70
2024-04-23T08:31:40.275Z,10.50
2024-04-23T08:34:14.295Z,7.50
2024-04-23T08:36:48.058Z,8.70
2024-04-23T08:39:21.910Z,8.50
2024-04-23T08:41:58.532Z,9.20
2024-04-23T08:44:41.221Z,7.90
2024-04-23T08:47:16.155Z,7.70
2024-04-23T08:49:51.137Z,9.60
2024-04-23T08:52:26.037Z,8.00
2024-04-23T08:54:59.904Z,8.30
2024-04-23T08:57:35.539Z,8.20
2024-04-23T09:00:13.221Z,9.60
2024-04-23T09:02:49.146Z,7.80
2024-04-23T09:05:24.449Z,6.90
2024-04-23T09:07:59.659Z,6.70
2024-04-23T09:10:34.775Z,6.90
2024-04-23T09:13:09.770Z,5.60
2024-04-23T09:15:43.502Z,5.90
2024-04-23T09:18:19.060Z,5.90
2024-04-23T09:20:53.431Z,5.20
2024-04-23T09:23:32.308Z,4.50
2024-04-23T09:26:07.893Z,4.20
2024-04-23T09:28:44.663Z,4.10
2024-04-23T09:31:23.949Z,4.90
2024-04-23T09:33:59.084Z,12.00
2024-04-23T09:36:36.532Z,5.30
2024-04-23T09:39:19.753Z,4.80
2024-04-23T09:42:03.426Z,5.60
2024-04-23T09:44:40.913Z,5.40
2024-04-23T09:47:16.809Z,5.70
2024-04-23T09:49:58.305Z,5.30
2024-04-23T09:52:36.945Z,5.10
2024-04-23T09:55:15.492Z,5.60
2024-04-23T09:57:53.762Z,5.40
2024-04-23T10:00:29.649Z,6.00
2024-04-23T10:03:16.328Z,5.70
2024-04-23T10:05:52.984Z,5.50
2024-04-23T10:08:39.826Z,5.10
2024-04-23T10:11:22.288Z,5.60
2024-04-23T10:14:05.431Z,4.90
2024-04-23T10:16:51.050Z,5.80
2024-04-23T10:19:28.283Z,26.20
2024-04-23T10:22:04.178Z,6.70
2024-04-23T10:24:38.082Z,7.80
2024-04-23T10:27:13.923Z,4.80
2024-04-23T10:29:50.880Z,6.90
2024-04-23T10:32:29.918Z,5.30
2024-04-23T10:35:06.796Z,4.70
2024-04-23T10:37:44.904Z,5.30
2024-04-23T10:40:19.650Z,5.70
2024-04-23T10:42:53.322Z,5.30
2024-04-23T10:45:27.510Z,6.30
2024-04-23T10:48:10.357Z,6.00
2024-04-23T10:50:53.957Z,11.50
2024-04-23T10:53:27.952Z,9.00
2024-04-23T10:56:01.895Z,6.80
2024-04-23T10:58:42.153Z,8.60
2024-04-23T11:01:29.455Z,5.30
2024-04-23T11:04:10.888Z,6.50
2024-04-23T11:06:49.290Z,7.00
2024-04-23T11:09:29.332Z,9.40
2024-04-23T11:12:02.977Z,6.00
2024-04-23T11:14:40.612Z,7.60
2024-04-23T11:17:14.607Z,17.50
2024-04-23T11:19:51.965Z,5.90
2024-04-23T11:22:50.305Z,4.60
2024-04-23T11:25:35.277Z,5.10
2024-04-23T11:28:10.298Z,6.10
2024-04-23T11:30:52.320Z,6.20
2024-04-23T11:33:26.559Z,4.50
2024-04-23T11:36:00.976Z,5.00
2024-04-23T11:38:46.782Z,6.50
2024-04-23T11:41:20.353Z,5.30
2024-04-23T11:43:54.252Z,5.70
2024-04-23T11:46:28.151Z,5.50
2024-04-23T11:49:02.471Z,19.00
2024-04-23T11:51:36.942Z,6.60
2024-04-23T11:54:11.380Z,6.30
2024-04-23T11:56:46.106Z,7.40
2024-04-23T11:59:23.465Z,5.30
2024-04-23T12:01:57.213Z,5.00
2024-04-23T12:04:31.596Z,5.50
2024-04-23T12:07:06.514Z,5.50
2024-04-23T12:09:40.301Z,5.70
2024-04-23T12:12:18.320Z,5.20
2024-04-23T12:14:54.371Z,5.90
2024-04-23T12:17:28.300Z,7.20
2024-04-23T12:20:02.521Z,5.60
2024-04-23T12:22:37.670Z,4.70
2024-04-23T12:25:12.908Z,11.50
2024-04-23T12:27:49.252Z,8.40
2024-04-23T12:30:29.397Z,5.10
2024-04-23T12:33:15.297Z,5.20
2024-04-23T12:35:49.894Z,6.80
2024-04-23T12:38:23.595Z,4.90
2024-04-23T12:40:58.034Z,6.10
2024-04-23T12:43:33.257Z,5.90
2024-04-23T12:46:07.731Z,4.60
2024-04-23T12:48:42.274Z,6.00
2024-04-23T12:51:16.427Z,5.20
2024-04-23T12:53:50.655Z,5.20
2024-04-23T12:56:24.739Z,4.50
2024-04-23T12:58:58.744Z,5.10
2024-04-23T13:01:41.753Z,6.20
2024-04-23T13:04:19.281Z,4.30
2024-04-23T13:06:53.138Z,10.80
2024-04-23T13:09:26.920Z,5.60
2024-04-23T13:12:03.599Z,5.90
2024-04-23T13:14:37.440Z,7.90
2024-04-23T13:17:13.827Z,6.90
2024-04-23T13:19:50.512Z,5.50
2024-04-23T13:22:30.503Z,7.60
2024-04-23T13:25:04.616Z,4.60
2024-04-23T13:27:38.477Z,5.20
2024-04-23T13:30:15.315Z,5.00
2024-04-23T13:32:50.104Z,12.70
2024-04-23T13:35:25.502Z,6.40
2024-04-23T13:37:59.502Z,8.70
2024-04-23T13:40:33.741Z,5.50
2024-04-23T13:43:08.573Z,6.00
2024-04-23T13:45:42.326Z,4.80
2024-04-23T13:48:16.044Z,8.80
2024-04-23T13:50:49.886Z,7.30
2024-04-23T13:53:23.598Z,6.00
2024-04-23T13:55:57.427Z,5.50
2024-04-23T13:58:31.309Z,5.20
2024-04-23T14:01:11.045Z,5.30
2024-04-23T14:03:45.024Z,5.90
2024-04-23T14:06:19.499Z,8.10
2024-04-23T14:08:53.360Z,9.00
2024-04-23T14:11:28.546Z,6.90
2024-04-23T14:14:02.474Z,5.10
2024-04-23T14:16:36.321Z,5.70
2024-04-23T14:19:12.347Z,5.50
2024-04-23T14:21:49.313Z,5.80
2024-04-23T14:24:23.450Z,6.10
2024-04-23T14:26:57.036Z,5.30
2024-04-23T14:29:30.992Z,6.40
2024-04-23T14:32:06.150Z,6.10
2024-04-23T14:34:39.830Z,7.30
2024-04-23T14:37:13.498Z,6.20
2024-04-23T14:39:47.112Z,6.20
2024-04-23T14:42:21.970Z,7.00
2024-04-23T14:44:58.138Z,10.10
2024-04-23T14:47:34.438Z,5.80
2024-04-23T14:50:12.450Z,5.50
2024-04-23T14:52:46.317Z,5.20
2024-04-23T14:55:20.060Z,6.50
2024-04-23T14:57:56.195Z,6.10
2024-04-23T15:00:31.129Z,5.40
2024-04-23T15:03:05.494Z,5.60
2024-04-23T15:05:42.590Z,5.90
2024-04-23T15:08:16.504Z,5.70
2024-04-23T15:10:53.695Z,7.50
2024-04-23T15:13:27.438Z,5.50
2024-04-23T15:16:06.216Z,5.90
2024-04-23T15:18:42.136Z,5.80
2024-04-23T15:21:16.885Z,6.50
2024-04-23T15:23:50.941Z,6.00
2024-04-23T15:26:25.257Z,7.90
2024-04-23T15:28:59.206Z,7.10
2024-04-23T15:31:33.199Z,6.70
2024-04-23T15:34:08.462Z,6.70
2024-04-23T15:36:42.513Z,6.40
2024-04-23T15:39:16.308Z,7.00
2024-04-23T15:41:49.972Z,6.60
2024-04-23T15:44:24.608Z,6.00
2024-04-23T15:46:58.240Z,6.30
2024-04-23T15:49:31.990Z,8.20
2024-04-23T15:52:06.689Z,8.80
2024-04-23T15:54:40.749Z,6.60
2024-04-23T15:57:15.763Z,6.50
2024-04-23T15:59:50.978Z,7.20
2024-04-23T16:02:28.543Z,5.60
2024-04-23T16:05:03.049Z,7.10
2024-04-23T16:07:36.985Z,6.90
2024-04-23T16:10:11.728Z,6.80
2024-04-23T16:12:45.324Z,7.00
2024-04-23T16:15:19.247Z,6.40
2024-04-23T16:17:53.125Z,7.00
2024-04-23T16:20:27.125Z,6.70
2024-04-23T16:23:01.041Z,8.10
2024-04-23T16:25:35.806Z,8.70
2024-04-23T16:28:10.253Z,7.60
2024-04-23T16:30:44.015Z,7.10
2024-04-23T16:33:18.680Z,8.40
2024-04-23T16:35:52.737Z,6.00
2024-04-23T16:38:26.570Z,7.40
2024-04-23T16:41:04.242Z,8.60
2024-04-23T16:43:39.018Z,9.40
2024-04-23T16:46:14.406Z,9.30
2024-04-23T16:48:48.681Z,7.60
2024-04-23T16:51:22.588Z,9.00
2024-04-23T16:53:56.253Z,6.70
2024-04-23T16:56:30.169Z,9.00
2024-04-23T16:59:04.388Z,9.90
2024-04-23T17:01:38.607Z,8.30
2024-04-23T17:04:12.821Z,7.70
2024-04-23T17:06:46.687Z,7.80
2024-04-23T17:09:20.514Z,8.20
2024-04-23T17:11:54.815Z,8.30
2024-04-23T17:14:28.705Z,8.30
2024-04-23T17:17:04.054Z,10.40
2024-04-23T17:19:38.091Z,10.20
2024-04-23T17:22:12.230Z,6.50
2024-04-23T17:24:46.524Z,8.70
2024-04-23T17:27:20.666Z,7.60
2024-04-23T17:29:55.961Z,7.90
2024-04-23T17:32:30.342Z,7.80
2024-04-23T17:35:05.288Z,6.40
2024-04-23T17:37:42.055Z,8.10
2024-04-23T17:40:17.293Z,7.30
2024-04-23T17:42:54.151Z,8.40
2024-04-23T17:45:28.256Z,8.20
2024-04-23T17:48:02.483Z,8.20
2024-04-23T17:50:38.290Z,7.90
2024-04-23T17:53:12.477Z,8.30
2024-04-23T17:55:46.779Z,8.60
2024-04-23T17:58:21.295Z,6.70
2024-04-23T18:00:57.617Z,6.90
2024-04-23T18:03:34.071Z,7.50
2024-04-23T18:06:13.075Z,7.10
2024-04-23T18:08:47.211Z,7.10
2024-04-23T18:11:24.864Z,6.60
2024-04-23T18:13:59.315Z,7.20
2024-04-23T18:16:34.986Z,7.90
2024-04-23T18:19:08.995Z,8.70
2024-04-23T18:21:42.774Z,7.50
2024-04-23T18:24:18.616Z,8.70
2024-04-23T18:26:55.726Z,7.40
2024-04-23T18:29:29.708Z,7.80
2024-04-23T18:32:06.107Z,9.30
2024-04-23T18:34:40.252Z,9.30
2024-04-23T18:37:14.125Z,6.80
2024-04-23T18:39:49.274Z,8.50
2024-04-23T18:42:23.030Z,9.20
2024-04-23T18:44:57.240Z,8.00
2024-04-23T18:47:33.316Z,9.60
2024-04-23T18:50:13.390Z,8.00
2024-04-23T18:52:47.532Z,12.20
2024-04-23T18:55:21.426Z,8.10
2024-04-23T18:57:55.232Z,9.10
2024-04-23T19:00:29.473Z,8.40
2024-04-23T19:03:03.469Z,8.20
2024-04-23T19:05:37.652Z,10.20
2024-04-23T19:08:12.319Z,10.00
2024-04-23T19:10:46.530Z,8.10
2024-04-23T19:13:20.924Z,10.50
2024-04-23T19:15:55.038Z,11.40
2024-04-23T19:18:31.926Z,14.50
2024-04-23T19:21:06.789Z,10.40
2024-04-23T19:23:40.743Z,11.80
2024-04-23T19:26:14.641Z,10.20
2024-04-23T19:28:49.146Z,11.30
2024-04-23T19:31:22.991Z,10.70
2024-04-23T19:33:57.147Z,10.90
2024-04-23T19:36:31.261Z,9.70
2024-04-23T19:39:05.604Z,12.90
2024-04-23T19:41:39.641Z,11.80
2024-04-23T19:44:16.975Z,12.10
2024-04-23T19:46:51.463Z,11.60
2024-04-23T19:49:26.621Z,11.50
2024-04-23T19:52:00.961Z,12.50
2024-04-23T19:54:35.137Z,12.70
2024-04-23T19:57:29.185Z,11.10
2024-04-23T20:00:03.419Z,11.20
2024-04-23T20:02:39.231Z,12.20
2024-04-23T20:05:13.633Z,11.50
2024-04-23T20:07:47.693Z,11.10
2024-04-23T20:10:21.804Z,11.70
2024-04-23T20:12:55.963Z,12.80
2024-04-23T20:15:29.898Z,13.90
2024-04-23T20:18:04.481Z,12.60
2024-04-23T20:20:40.295Z,12.40
2024-04-23T20:23:14.538Z,11.70
2024-04-23T20:25:48.929Z,13.00
2024-04-23T20:28:24.458Z,13.50
2024-04-23T20:31:00.809Z,16.50
2024-04-23T20:33:35.942Z,13.50
2024-04-23T20:36:11.381Z,12.40
2024-04-23T20:38:45.511Z,12.80
2024-04-23T20:41:19.391Z,15.50
2024-04-23T20:43:53.269Z,17.00
2024-04-23T20:46:27.194Z,13.60
2024-04-23T20:49:00.992Z,16.50
2024-04-23T20:51:34.790Z,17.60
2024-04-23T20:54:08.792Z,14.50
2024-04-23T20:56:42.684Z,13.80
2024-04-23T20:59:16.600Z,17.80
2024-04-23T21:01:50.444Z,18.10
2024-04-23T21:04:24.517Z,16.60
2024-04-23T21:06:58.422Z,15.10
2024-04-23T21:09:32.433Z,18.50
2024-04-23T21:12:07.381Z,16.40
2024-04-23T21:14:41.198Z,16.90
2024-04-23T21:17:15.044Z,17.20
2024-04-23T21:19:48.924Z,15.50
2024-04-23T21:22:22.706Z,14.30
2024-04-23T21:24:56.468Z,16.30
2024-04-23T21:27:30.256Z,19.40
2024-04-23T21:30:05.214Z,17.40
2024-04-23T21:32:45.385Z,20.10
2024-04-23T21:35:19.842Z,16.50
2024-04-23T21:38:01.544Z,16.30
2024-04-23T21:40:36.507Z,18.10
2024-04-23T21:43:10.355Z,18.70
2024-04-23T21:45:44.314Z,18.10
2024-04-23T21:48:18.269Z,16.40
2024-04-23T21:50:52.144Z,15.70
2024-04-23T21:53:26.215Z,17.80
2024-04-23T21:56:00.140Z,17.80
2024-04-23T21:58:35.050Z,17.30
2024-04-23T22:01:16.391Z,19.20
2024-04-23T22:03:51.631Z,17.70
2024-04-23T22:06:25.915Z,19.30
2024-04-23T22:08:59.847Z,18.30
2024-04-23T22:11:33.780Z,17.60
2024-04-23T22:14:08.464Z,17.70
2024-04-23T22:16:44.353Z,18.90
2024-04-23T22:19:19.379Z,17.10
2024-04-23T22:21:52.975Z,19.30
2024-04-23T22:24:26.613Z,18.60
2024-04-23T22:27:00.382Z,18.40
2024-04-23T22:29:34.276Z,18.00
2024-04-23T22:32:08.705Z,21.30
2024-04-23T22:34:43.826Z,17.30
2024-04-23T22:37:17.545Z,19.50
2024-04-23T22:39:51.436Z,18.60
2024-04-23T22:42:25.127Z,17.00
2024-04-23T22:44:58.690Z,19.30
2024-04-23T22:47:32.548Z,15.90
2024-04-23T22:50:07.213Z,15.90
2024-04-23T22:52:40.861Z,17.40
2024-04-23T22:55:14.465Z,19.90
2024-04-23T22:57:48.120Z,18.40
2024-04-23T23:00:21.861Z,16.50
2024-04-23T23:02:55.583Z,17.60
2024-04-23T23:05:29.360Z,18.00
2024-04-23T23:08:03.670Z,19.50
2024-04-23T23:10:37.497Z,16.30
2024-04-23T23:13:11.238Z,18.10
2024-04-23T23:15:44.820Z,19.10
2024-04-23T23:18:18.537Z,20.90
2024-04-23T23:20:52.064Z,19.40
2024-04-23T23:23:25.931Z,19.30
2024-04-23T23:25:59.628Z,19.50
2024-04-23T23:28:33.163Z,22.60
2024-04-23T23:31:07.021Z,21.30
2024-04-23T23:33:40.723Z,18.20
2024-04-23T23:36:14.709Z,19.70
2024-04-23T23:38:48.482Z,22.80
2024-04-23T23:41:22.737Z,22.70
2024-04-23T23:43:56.516Z,22.50
2024-04-23T23:46:30.131Z,22.20
2024-04-23T23:49:03.730Z,22.00
2024-04-23T23:51:37.379Z,21.50
2024-04-23T23:54:11.029Z,19.80
2024-04-23T23:56:44.708Z,23.50
2024-04-23T23:59:18.766Z,21.40
